LFLS/GNB METAR and TAF weather

Enter ICAO airport designator
Station Type Date Time Source
LFLS METAR 2022/12/10 01:00 UTC NOAA

LFLS 100100Z AUTO 29004KT 260V320 6000 -RA BKN006 OVC012 01/01 Q1003


Station Type Date Time Source
LFLS Decoded METAR 2022/12/10 01:00 UTC NOAA

Grenoble / St. Geoirs, France (LFLS) 45-22N 005-20E 386M
Dec 09, 2022 - 08:00 PM EST / 2022.12.10 0100 UTC
Wind: from the WNW (290 degrees) at 5 MPH (4 KT) (direction variable):0
Visibility: 3 mile(s):0
Sky conditions: overcast
Weather: light rain
Temperature: 33 F (1 C)
Windchill: 28 F (-2 C):1
Dew Point: 33 F (1 C)
Relative Humidity: 100%
Pressure (altimeter): 29.62 in. Hg (1003 hPa)
ob: LFLS 100100Z AUTO 29004KT 260V320 6000 -RA BKN006 OVC012 01/01 Q1003
cycle: 1

Station Type Date Time Source
LFLS TAF 2022/12/09 20:15 UTC NOAA

TAF LFLS 092011Z 0920/1015 CNL

Example: see airport list